createdAt,value
2018-05-09T00:00:26.761Z,17.50
2018-05-09T00:02:58.035Z,17.50
2018-05-09T00:05:29.272Z,17.50
2018-05-09T00:08:00.503Z,17.50
2018-05-09T00:10:31.674Z,17.50
2018-05-09T00:13:02.934Z,17.50
2018-05-09T00:15:34.151Z,17.40
2018-05-09T00:18:05.524Z,17.40
2018-05-09T00:20:36.769Z,17.40
2018-05-09T00:23:08.042Z,17.40
2018-05-09T00:25:39.284Z,17.50
2018-05-09T00:28:10.726Z,17.50
2018-05-09T00:30:41.924Z,17.50
2018-05-09T00:33:13.274Z,17.50
2018-05-09T00:35:44.439Z,17.50
2018-05-09T00:38:17.282Z,17.50
2018-05-09T00:40:48.497Z,17.50
2018-05-09T00:43:19.735Z,17.50
2018-05-09T00:45:50.924Z,17.50
2018-05-09T00:48:22.287Z,17.40
2018-05-09T00:50:53.584Z,17.40
2018-05-09T00:53:24.880Z,17.40
2018-05-09T00:55:56.104Z,17.40
2018-05-09T00:58:27.310Z,17.40
2018-05-09T01:00:59.322Z,17.30
2018-05-09T01:03:30.575Z,17.30
2018-05-09T01:06:01.862Z,17.30
2018-05-09T01:08:33.092Z,17.30
2018-05-09T01:11:04.323Z,17.20
2018-05-09T01:13:35.540Z,17.20
2018-05-09T01:16:06.758Z,17.10
2018-05-09T01:18:39.092Z,17.00
2018-05-09T01:21:10.284Z,17.10
2018-05-09T01:23:41.510Z,17.10
2018-05-09T01:26:12.710Z,17.00
2018-05-09T01:28:44.234Z,17.00
2018-05-09T01:31:15.477Z,16.90
2018-05-09T01:33:46.713Z,16.80
2018-05-09T01:36:17.915Z,16.80
2018-05-09T01:38:49.291Z,16.70
2018-05-09T01:41:21.229Z,16.70
2018-05-09T01:43:52.426Z,16.60
2018-05-09T01:46:23.788Z,16.60
2018-05-09T01:48:54.962Z,16.60
2018-05-09T01:51:26.203Z,16.50
2018-05-09T01:53:57.493Z,16.50
2018-05-09T01:56:28.699Z,16.40
2018-05-09T01:58:59.887Z,16.40
2018-05-09T02:01:31.100Z,16.40
2018-05-09T02:04:03.035Z,16.40
2018-05-09T02:06:34.303Z,16.30
2018-05-09T02:09:06.225Z,16.30
2018-05-09T02:11:37.454Z,16.30
2018-05-09T02:14:08.701Z,16.30
2018-05-09T02:16:40.017Z,16.30
2018-05-09T02:19:11.159Z,16.10
2018-05-09T02:21:43.439Z,16.00
2018-05-09T02:24:14.660Z,16.00
2018-05-09T02:26:46.936Z,16.00
2018-05-09T02:29:18.105Z,16.00
2018-05-09T02:31:49.365Z,16.00
2018-05-09T02:34:20.618Z,16.00
2018-05-09T02:36:52.200Z,16.00
2018-05-09T02:39:23.454Z,16.00
2018-05-09T02:41:54.682Z,16.00
2018-05-09T02:44:25.894Z,16.00
2018-05-09T02:46:57.147Z,16.00
2018-05-09T02:49:28.335Z,16.00
2018-05-09T02:52:00.311Z,16.10
2018-05-09T02:54:31.585Z,16.00
2018-05-09T02:57:02.811Z,16.10
2018-05-09T02:59:34.031Z,16.00
2018-05-09T03:02:06.246Z,15.90
2018-05-09T03:04:37.492Z,15.90
2018-05-09T03:07:08.658Z,15.90
2018-05-09T03:09:40.260Z,15.90
2018-05-09T03:12:11.432Z,16.00
2018-05-09T03:14:42.679Z,15.90
2018-05-09T03:17:13.846Z,15.80
2018-05-09T03:19:45.115Z,15.70
2018-05-09T03:22:17.351Z,15.70
2018-05-09T03:24:48.675Z,15.60
2018-05-09T03:27:20.237Z,15.60
2018-05-09T03:29:51.504Z,15.60
2018-05-09T03:32:22.660Z,15.70
2018-05-09T03:34:54.651Z,15.60
2018-05-09T03:37:25.870Z,15.60
2018-05-09T03:39:57.787Z,15.60
2018-05-09T03:42:29.299Z,15.50
2018-05-09T03:45:00.480Z,15.60
2018-05-09T03:47:31.955Z,15.60
2018-05-09T03:50:03.172Z,15.60
2018-05-09T03:52:34.414Z,15.60
2018-05-09T03:55:05.577Z,15.60
2018-05-09T03:57:36.810Z,15.70
2018-05-09T04:00:08.069Z,15.70
2018-05-09T04:02:51.886Z,15.70
2018-05-09T04:05:36.209Z,15.60
2018-05-09T04:08:19.640Z,15.60
2018-05-09T04:10:50.866Z,15.60
2018-05-09T04:13:23.032Z,15.50
2018-05-09T04:15:55.006Z,15.60
2018-05-09T04:18:26.251Z,15.60
2018-05-09T04:20:57.538Z,15.60
2018-05-09T04:23:29.453Z,15.60
2018-05-09T04:26:00.619Z,15.60
2018-05-09T04:28:31.849Z,15.70
2018-05-09T04:31:03.047Z,15.80
2018-05-09T04:33:34.292Z,15.80
2018-05-09T04:36:05.594Z,15.80
2018-05-09T04:38:36.994Z,15.90
2018-05-09T04:41:08.937Z,16.00
2018-05-09T04:43:40.343Z,16.00
2018-05-09T04:46:11.534Z,16.00
2018-05-09T04:48:42.768Z,16.00
2018-05-09T04:51:13.978Z,16.10
2018-05-09T04:53:45.183Z,16.10
2018-05-09T04:56:17.384Z,16.20
2018-05-09T04:58:48.602Z,16.20
2018-05-09T05:01:19.813Z,16.30
2018-05-09T05:03:51.005Z,16.30
2018-05-09T05:06:22.209Z,16.30
2018-05-09T05:08:53.451Z,16.40
2018-05-09T05:11:24.770Z,16.40
2018-05-09T05:13:56.023Z,16.50
2018-05-09T05:16:27.235Z,16.60
2018-05-09T05:18:58.386Z,16.60
2018-05-09T05:21:29.730Z,16.60
2018-05-09T05:24:00.917Z,16.70
2018-05-09T05:26:32.321Z,16.80
2018-05-09T05:29:03.567Z,16.80
2018-05-09T05:31:34.786Z,16.80
2018-05-09T05:34:06.024Z,16.90
2018-05-09T05:36:37.354Z,16.90
2018-05-09T05:39:08.670Z,16.90
2018-05-09T05:41:39.923Z,16.80
2018-05-09T05:44:11.138Z,16.90
2018-05-09T05:46:42.398Z,17.00
2018-05-09T05:49:13.589Z,17.00
2018-05-09T05:51:45.601Z,17.00
2018-05-09T05:54:16.874Z,17.00
2018-05-09T05:56:48.167Z,17.10
2018-05-09T05:59:19.340Z,17.20
2018-05-09T06:01:50.579Z,17.40
2018-05-09T06:04:21.787Z,17.50
2018-05-09T06:06:53.146Z,17.50
2018-05-09T06:09:24.345Z,17.60
2018-05-09T06:11:57.029Z,17.60
2018-05-09T06:14:28.277Z,17.60
2018-05-09T06:16:59.631Z,17.70
2018-05-09T06:19:31.656Z,17.70
2018-05-09T06:22:02.891Z,17.70
2018-05-09T06:24:34.889Z,17.80
2018-05-09T06:27:06.894Z,17.90
2018-05-09T06:29:38.158Z,17.90
2018-05-09T06:32:09.798Z,18.00
2018-05-09T06:34:41.041Z,18.10
2018-05-09T06:37:12.359Z,18.10
2018-05-09T06:39:43.672Z,18.10
2018-05-09T06:42:14.954Z,18.20
2018-05-09T06:44:46.890Z,18.20
2018-05-09T06:47:18.134Z,18.20
2018-05-09T06:49:50.193Z,18.40
2018-05-09T06:52:21.472Z,18.40
2018-05-09T06:54:53.420Z,18.50
2018-05-09T06:57:25.455Z,18.60
2018-05-09T06:59:57.487Z,18.60
2018-05-09T07:02:28.663Z,18.60
2018-05-09T07:04:59.906Z,18.70
2018-05-09T07:07:31.154Z,18.70
2018-05-09T07:10:02.370Z,18.70
2018-05-09T07:12:35.306Z,18.80
2018-05-09T07:15:08.399Z,18.90
2018-05-09T07:20:51.517Z,19.00
2018-05-09T07:23:23.454Z,19.10
2018-05-09T07:25:54.664Z,19.00
2018-05-09T07:28:26.656Z,19.20
2018-05-09T07:30:57.946Z,19.20
2018-05-09T07:33:29.882Z,19.40
2018-05-09T07:36:01.131Z,19.40
2018-05-09T07:38:32.474Z,19.50
2018-05-09T07:41:03.697Z,19.70
2018-05-09T07:43:34.926Z,19.80
2018-05-09T07:46:06.216Z,19.80
2018-05-09T07:48:39.489Z,19.90
2018-05-09T07:51:10.819Z,19.90
2018-05-09T07:53:42.098Z,20.10
2018-05-09T07:56:13.420Z,20.10
2018-05-09T07:58:44.636Z,20.20
2018-05-09T08:01:15.912Z,20.30
2018-05-09T08:03:47.099Z,20.40
2018-05-09T08:06:18.320Z,20.40
2018-05-09T08:08:49.505Z,20.40
2018-05-09T08:11:20.938Z,20.40
2018-05-09T08:13:52.132Z,20.40
2018-05-09T08:16:23.423Z,20.40
2018-05-09T08:18:54.698Z,20.50
2018-05-09T08:21:25.955Z,20.60
2018-05-09T08:23:57.151Z,20.60
2018-05-09T08:26:29.179Z,20.80
2018-05-09T08:29:00.379Z,20.80
2018-05-09T08:31:31.605Z,21.00
2018-05-09T08:34:03.590Z,21.10
2018-05-09T08:36:34.882Z,21.00
2018-05-09T08:39:06.167Z,21.20
2018-05-09T08:41:37.341Z,21.20
2018-05-09T08:44:09.226Z,21.30
2018-05-09T08:46:41.193Z,21.30
2018-05-09T08:49:12.432Z,21.30
2018-05-09T08:51:43.639Z,21.50
2018-05-09T08:54:14.870Z,21.60
2018-05-09T08:56:46.033Z,21.70
2018-05-09T08:59:17.429Z,21.80
2018-05-09T09:01:48.810Z,21.80
2018-05-09T09:04:21.015Z,22.00
2018-05-09T09:06:52.318Z,22.00
2018-05-09T09:09:23.546Z,22.00
2018-05-09T09:11:56.050Z,22.20
2018-05-09T09:14:27.304Z,22.20
2018-05-09T09:16:59.119Z,22.40
2018-05-09T09:19:31.268Z,22.60
2018-05-09T09:22:02.457Z,22.60
2018-05-09T09:24:34.027Z,22.80
2018-05-09T09:27:05.864Z,23.00
2018-05-09T09:29:38.064Z,23.10
2018-05-09T09:32:09.276Z,23.00
2018-05-09T09:34:40.501Z,23.00
2018-05-09T09:37:12.485Z,23.30
2018-05-09T09:39:43.804Z,23.30
2018-05-09T09:42:15.194Z,23.40
2018-05-09T09:44:46.604Z,23.50
2018-05-09T09:47:18.577Z,23.50
2018-05-09T09:49:50.566Z,23.70
2018-05-09T09:52:21.846Z,23.60
2018-05-09T09:54:54.323Z,23.80
2018-05-09T09:57:25.666Z,24.00
2018-05-09T09:59:57.011Z,24.10
2018-05-09T10:02:28.260Z,24.10
2018-05-09T10:04:59.527Z,24.20
2018-05-09T10:07:31.639Z,24.50
2018-05-09T10:10:02.847Z,24.50
2018-05-09T10:12:34.797Z,24.50
2018-05-09T10:15:06.756Z,24.40
2018-05-09T10:17:38.687Z,24.40
2018-05-09T10:20:10.296Z,24.40
2018-05-09T10:22:41.482Z,24.60
2018-05-09T10:25:12.707Z,24.70
2018-05-09T10:27:43.906Z,24.80
2018-05-09T10:30:15.842Z,24.80
2018-05-09T10:32:47.069Z,24.80
2018-05-09T10:35:19.766Z,25.00
2018-05-09T10:37:51.264Z,25.00
2018-05-09T10:40:22.491Z,24.80
2018-05-09T10:42:54.464Z,24.70
2018-05-09T10:45:25.678Z,24.60
2018-05-09T10:47:56.939Z,24.80
2018-05-09T10:50:28.292Z,25.10
2018-05-09T10:53:00.250Z,25.20
2018-05-09T10:55:31.540Z,25.20
2018-05-09T10:58:02.763Z,25.30
2018-05-09T11:00:33.982Z,25.40
2018-05-09T11:03:06.058Z,25.50
2018-05-09T11:05:37.244Z,25.50
2018-05-09T11:08:08.480Z,25.50
2018-05-09T11:10:39.704Z,25.40
2018-05-09T11:13:10.897Z,25.50
2018-05-09T11:15:42.895Z,25.50
2018-05-09T11:18:14.316Z,25.50
2018-05-09T11:20:46.444Z,25.80
2018-05-09T11:23:17.638Z,25.80
2018-05-09T11:25:49.719Z,25.60
2018-05-09T11:28:21.022Z,25.60
2018-05-09T11:30:52.310Z,25.50
2018-05-09T11:33:23.766Z,25.40
2018-05-09T11:35:54.949Z,25.50
2018-05-09T11:38:26.244Z,25.80
2018-05-09T11:40:57.544Z,26.00
2018-05-09T11:43:28.798Z,26.00
2018-05-09T11:46:00.313Z,26.00
2018-05-09T11:48:31.556Z,26.00
2018-05-09T11:51:03.200Z,25.90
2018-05-09T11:53:34.865Z,25.90
2018-05-09T11:56:06.176Z,25.80
2018-05-09T11:58:37.456Z,25.90
2018-05-09T12:01:08.831Z,26.10
2018-05-09T12:03:40.662Z,26.30
2018-05-09T12:06:13.087Z,26.30
2018-05-09T12:08:44.538Z,26.20
2018-05-09T12:11:16.523Z,26.00
2018-05-09T12:13:48.453Z,26.00
2018-05-09T12:16:19.761Z,25.80
2018-05-09T12:18:51.531Z,25.80
2018-05-09T12:21:22.855Z,25.80
2018-05-09T12:23:54.171Z,25.80
2018-05-09T12:26:25.509Z,25.90
2018-05-09T12:28:56.711Z,26.20
2018-05-09T12:31:28.022Z,26.40
2018-05-09T12:33:59.594Z,26.20
2018-05-09T12:36:30.997Z,26.30
2018-05-09T12:39:02.369Z,26.10
2018-05-09T12:41:33.694Z,26.20
2018-05-09T12:44:05.682Z,25.80
2018-05-09T12:46:36.870Z,25.80
2018-05-09T12:49:08.198Z,25.90
2018-05-09T12:51:39.402Z,25.90
2018-05-09T12:54:10.615Z,25.80
2018-05-09T12:56:42.554Z,26.10
2018-05-09T12:59:13.887Z,26.10
2018-05-09T13:01:45.146Z,26.10
2018-05-09T13:04:16.347Z,25.80
2018-05-09T13:06:47.574Z,25.70
2018-05-09T13:09:18.776Z,25.50
2018-05-09T13:11:49.970Z,25.50
2018-05-09T13:14:21.273Z,25.60
2018-05-09T13:16:53.287Z,25.90
2018-05-09T13:19:24.588Z,25.90
2018-05-09T13:21:55.835Z,25.90
2018-05-09T13:24:27.101Z,26.10
2018-05-09T13:26:59.096Z,26.50
2018-05-09T13:29:30.258Z,26.50
2018-05-09T13:32:01.520Z,26.50
2018-05-09T13:34:32.820Z,26.60
2018-05-09T13:37:11.664Z,27.00
2018-05-09T13:39:42.989Z,26.90
2018-05-09T13:42:14.244Z,27.00
2018-05-09T13:44:45.483Z,27.20
2018-05-09T13:47:16.873Z,27.50
2018-05-09T13:49:48.836Z,27.50
2018-05-09T13:52:21.082Z,27.30
2018-05-09T13:54:52.321Z,27.30
2018-05-09T13:57:23.558Z,27.20
2018-05-09T13:59:54.767Z,27.10
2018-05-09T14:02:26.032Z,26.90
2018-05-09T14:04:57.243Z,26.80
2018-05-09T14:07:29.210Z,26.90
2018-05-09T14:10:01.342Z,26.90
2018-05-09T14:12:32.460Z,26.90
2018-05-09T14:15:03.723Z,26.80
2018-05-09T14:17:34.916Z,26.80
2018-05-09T14:20:06.219Z,26.70
2018-05-09T14:22:38.645Z,26.60
2018-05-09T14:25:10.228Z,26.60
2018-05-09T14:27:41.475Z,26.70
2018-05-09T14:30:12.630Z,26.60
2018-05-09T14:32:44.591Z,26.80
2018-05-09T14:35:15.854Z,26.70
2018-05-09T14:37:47.799Z,26.80
2018-05-09T14:40:19.134Z,26.80
2018-05-09T14:42:50.334Z,26.90
2018-05-09T14:45:21.611Z,27.10
2018-05-09T14:47:53.601Z,27.10
2018-05-09T14:50:25.702Z,27.00
2018-05-09T14:52:56.889Z,27.00
2018-05-09T14:55:29.591Z,26.90
2018-05-09T14:58:01.635Z,26.70
2018-05-09T15:00:32.864Z,26.70
2018-05-09T15:03:04.504Z,26.70
2018-05-09T15:05:35.706Z,26.60
2018-05-09T15:08:07.687Z,26.20
2018-05-09T15:10:39.623Z,26.30
2018-05-09T15:13:11.568Z,26.20
2018-05-09T15:15:42.831Z,26.20
2018-05-09T15:18:14.073Z,26.30
2018-05-09T15:20:45.311Z,26.30
2018-05-09T15:23:16.648Z,26.40
2018-05-09T15:25:47.811Z,26.40
2018-05-09T15:28:19.775Z,26.50
2018-05-09T15:30:52.019Z,26.40
2018-05-09T15:33:23.195Z,26.40
2018-05-09T15:35:55.193Z,26.50
2018-05-09T15:38:26.494Z,26.50
2018-05-09T15:40:58.505Z,26.30
2018-05-09T15:43:29.749Z,26.30
2018-05-09T15:46:00.926Z,26.20
2018-05-09T15:48:32.901Z,26.30
2018-05-09T15:51:04.130Z,26.30
2018-05-09T15:53:35.356Z,26.50
2018-05-09T15:56:06.665Z,26.40
2018-05-09T15:58:37.869Z,26.40
2018-05-09T16:01:10.046Z,26.30
2018-05-09T16:03:41.247Z,26.30
2018-05-09T16:06:12.519Z,26.40
2018-05-09T16:08:43.754Z,26.50
2018-05-09T16:11:15.898Z,26.30
2018-05-09T16:13:47.162Z,26.30
2018-05-09T16:16:18.390Z,26.20
2018-05-09T16:18:49.628Z,26.20
2018-05-09T16:21:21.042Z,26.20
2018-05-09T16:23:52.340Z,26.10
2018-05-09T16:26:23.527Z,26.10
2018-05-09T16:28:54.764Z,26.00
2018-05-09T16:31:26.024Z,26.00
2018-05-09T16:33:57.276Z,25.90
2018-05-09T16:36:28.607Z,25.90
2018-05-09T16:39:00.910Z,25.80
2018-05-09T16:41:32.390Z,25.80
2018-05-09T16:44:04.010Z,25.90
2018-05-09T16:46:35.170Z,25.80
2018-05-09T16:49:06.774Z,25.80
2018-05-09T16:51:37.988Z,25.80
2018-05-09T16:54:09.225Z,25.70
2018-05-09T16:56:40.523Z,25.70
2018-05-09T16:59:11.698Z,25.60
2018-05-09T17:01:42.920Z,25.60
2018-05-09T17:04:14.193Z,25.60
2018-05-09T17:06:45.438Z,25.60
2018-05-09T17:09:16.657Z,25.50
2018-05-09T17:11:47.896Z,25.30
2018-05-09T17:14:19.062Z,25.30
2018-05-09T17:16:50.283Z,25.30
2018-05-09T17:19:21.464Z,25.30
2018-05-09T17:22:11.207Z,25.20
2018-05-09T17:24:42.443Z,25.20
2018-05-09T17:27:13.692Z,25.20
2018-05-09T17:29:44.982Z,25.20
2018-05-09T17:32:16.241Z,25.20
2018-05-09T17:34:48.189Z,25.10
2018-05-09T17:37:19.391Z,25.10
2018-05-09T17:39:50.615Z,25.10
2018-05-09T17:42:22.642Z,25.20
2018-05-09T17:44:54.001Z,25.10
2018-05-09T17:47:25.171Z,25.10
2018-05-09T17:49:57.133Z,25.10
2018-05-09T17:52:28.397Z,25.00
2018-05-09T17:54:59.771Z,25.00
2018-05-09T17:57:30.959Z,24.90
2018-05-09T18:00:02.939Z,24.80
2018-05-09T18:02:34.109Z,24.80
2018-05-09T18:05:05.734Z,24.60
2018-05-09T18:07:36.894Z,24.50
2018-05-09T18:10:08.126Z,24.30
2018-05-09T18:12:39.427Z,24.00
2018-05-09T18:15:10.514Z,23.90
2018-05-09T18:17:41.739Z,23.60
2018-05-09T18:20:13.664Z,23.30
2018-05-09T18:22:44.982Z,23.20
2018-05-09T18:25:16.227Z,23.10
2018-05-09T18:27:47.459Z,22.80
2018-05-09T18:30:18.686Z,22.70
2018-05-09T18:32:49.865Z,22.60
2018-05-09T18:35:21.402Z,22.40
2018-05-09T18:37:52.560Z,22.40
2018-05-09T18:40:23.768Z,22.10
2018-05-09T18:42:54.945Z,21.90
2018-05-09T18:45:26.190Z,21.70
2018-05-09T18:47:57.393Z,21.60
2018-05-09T18:50:28.590Z,21.40
2018-05-09T18:52:59.806Z,21.30
2018-05-09T18:55:31.002Z,21.20
2018-05-09T18:58:02.963Z,20.90
2018-05-09T19:00:34.268Z,20.90
2018-05-09T19:03:05.464Z,20.80
2018-05-09T19:05:37.431Z,20.80
2018-05-09T19:08:09.355Z,20.70
2018-05-09T19:10:40.575Z,20.70
2018-05-09T19:13:12.001Z,20.70
2018-05-09T19:15:43.200Z,20.60
2018-05-09T19:18:15.122Z,20.50
2018-05-09T19:20:46.343Z,20.50
2018-05-09T19:23:17.566Z,20.50
2018-05-09T19:25:49.586Z,20.50
2018-05-09T19:28:20.751Z,20.40
2018-05-09T19:30:51.960Z,20.40
2018-05-09T19:33:23.117Z,20.40
2018-05-09T19:35:54.366Z,20.40
2018-05-09T19:38:25.597Z,20.50
2018-05-09T19:40:56.864Z,20.40
2018-05-09T19:43:28.834Z,20.30
2018-05-09T19:46:00.170Z,20.30
2018-05-09T19:48:31.395Z,20.30
2018-05-09T19:51:02.713Z,20.20
2018-05-09T19:53:33.941Z,20.20
2018-05-09T19:56:06.004Z,20.20
2018-05-09T19:58:37.336Z,20.10
2018-05-09T20:01:09.303Z,20.10
2018-05-09T20:03:41.278Z,20.00
2018-05-09T20:06:13.298Z,20.00
2018-05-09T20:08:44.457Z,20.00
2018-05-09T20:11:15.691Z,20.00
2018-05-09T20:13:46.890Z,20.00
2018-05-09T20:16:18.360Z,19.90
2018-05-09T20:18:49.614Z,19.90
2018-05-09T20:21:21.006Z,19.90
2018-05-09T20:23:52.238Z,19.90
2018-05-09T20:26:23.542Z,19.90
2018-05-09T20:29:00.759Z,19.80
2018-05-09T20:31:50.667Z,19.80
2018-05-09T20:34:21.835Z,19.80
2018-05-09T20:36:53.045Z,19.80
2018-05-09T20:39:25.041Z,19.70
2018-05-09T20:41:56.295Z,19.70
2018-05-09T20:44:27.491Z,19.70
2018-05-09T20:46:59.531Z,19.70
2018-05-09T20:49:31.530Z,19.70
2018-05-09T20:52:02.771Z,19.70
2018-05-09T20:54:33.946Z,19.70
2018-05-09T20:57:05.232Z,19.80
2018-05-09T20:59:36.404Z,19.70
2018-05-09T21:02:08.696Z,19.80
2018-05-09T21:04:39.926Z,19.70
2018-05-09T21:07:11.169Z,19.80
2018-05-09T21:09:42.369Z,19.80
2018-05-09T21:12:13.556Z,19.80
2018-05-09T21:14:44.783Z,19.90
2018-05-09T21:17:16.740Z,20.10
2018-05-09T21:19:48.648Z,20.30
2018-05-09T21:22:20.286Z,20.30
2018-05-09T21:24:51.464Z,20.30
2018-05-09T21:27:22.694Z,20.40
2018-05-09T21:29:53.873Z,20.40
2018-05-09T21:32:25.086Z,20.40
2018-05-09T21:34:56.257Z,20.40
2018-05-09T21:37:27.492Z,20.40
2018-05-09T21:39:58.709Z,20.30
2018-05-09T21:42:29.959Z,20.30
2018-05-09T21:45:01.135Z,20.20
2018-05-09T21:47:33.154Z,20.20
2018-05-09T21:50:04.336Z,20.20
2018-05-09T21:52:35.535Z,20.10
2018-05-09T21:55:06.711Z,20.10
2018-05-09T21:57:37.954Z,20.10
2018-05-09T22:00:09.125Z,20.10
2018-05-09T22:02:41.172Z,20.00
2018-05-09T22:05:13.018Z,19.90
2018-05-09T22:07:44.284Z,19.90
2018-05-09T22:10:15.552Z,19.90
2018-05-09T22:12:47.475Z,19.80
2018-05-09T22:15:18.691Z,19.80
2018-05-09T22:17:49.919Z,19.70
2018-05-09T22:20:21.259Z,19.70
2018-05-09T22:22:52.547Z,19.70
2018-05-09T22:25:24.058Z,19.60
2018-05-09T22:27:55.283Z,19.50
2018-05-09T22:30:27.238Z,19.50
2018-05-09T22:32:59.143Z,19.40
2018-05-09T22:35:30.399Z,19.40
2018-05-09T22:38:01.575Z,19.40
2018-05-09T22:40:33.528Z,19.20
2018-05-09T22:43:04.690Z,19.20
2018-05-09T22:45:35.927Z,19.20
2018-05-09T22:48:07.249Z,19.20
2018-05-09T22:50:38.479Z,19.10
2018-05-09T22:53:09.683Z,19.10
2018-05-09T22:55:41.580Z,19.00
2018-05-09T22:58:12.799Z,19.00
2018-05-09T23:00:43.978Z,19.00
2018-05-09T23:03:15.211Z,18.90
2018-05-09T23:05:46.371Z,19.00
2018-05-09T23:08:17.713Z,19.00
2018-05-09T23:10:49.210Z,19.00
2018-05-09T23:13:21.146Z,19.10
2018-05-09T23:15:53.113Z,19.10
2018-05-09T23:18:25.203Z,19.10
2018-05-09T23:20:56.396Z,19.10
2018-05-09T23:23:27.626Z,19.10
2018-05-09T23:25:58.872Z,19.10
2018-05-09T23:28:30.117Z,19.10
2018-05-09T23:31:01.626Z,19.10
2018-05-09T23:33:33.519Z,19.00
2018-05-09T23:36:04.774Z,19.00
2018-05-09T23:38:35.974Z,18.90
2018-05-09T23:41:07.128Z,18.90
2018-05-09T23:43:38.364Z,18.90
2018-05-09T23:46:09.529Z,18.80
2018-05-09T23:48:40.799Z,18.80
2018-05-09T23:51:12.010Z,18.80
2018-05-09T23:53:43.210Z,18.80
2018-05-09T23:56:14.375Z,18.80
2018-05-09T23:58:46.460Z,18.80
